Time;durP1;ratioP1;P1;durP2;ratioP2;P2;SDS_P1;SDS_P2;PMS_P1;PMS_P2;Temp;Humidity;BMP_temperature;BMP_pressure;BME280_temperature;BME280_humidity;BME280_pressure;Samples;Min_cycle;Max_cycle;Signal;HPM_P1;HPM_P2
2022/08/26 00:03:34;;;;;;;;;;;26.30;51.60;;;24.83;53.43;101168.91;12250674;19;20403;-88
2022/08/26 00:07:35;;;;;;;;;;;26.30;51.60;;;24.78;53.35;101166.72;12251952;19;19914;-89
2022/08/26 00:11:37;;;;;;;;;;;26.20;51.60;;;24.60;53.41;101137.53;12250421;19;19925;-89
2022/08/26 00:15:39;;;;;;;;;;;26.40;51.70;;;24.64;53.72;101149.53;12251385;19;19918;-89
2022/08/26 00:19:40;;;;;;;;;;;26.10;51.50;;;24.67;53.77;101162.56;12249318;19;20268;-89
2022/08/26 00:23:41;;;;;;;;;;;26.10;51.60;;;24.62;53.81;101156.88;12251502;19;19922;-89
2022/08/26 00:27:44;;;;;;;;;;;26.10;51.60;;;24.35;54.04;101119.78;12250835;19;19919;-89
2022/08/26 00:31:45;;;;;;;;;;;26.10;51.60;;;24.22;53.60;101105.09;12246979;19;19918;-89
2022/08/26 00:35:47;;;;;;;;;;;26.10;51.70;;;24.35;54.12;101127.78;12250314;19;19942;-89
2022/08/26 00:39:49;;;;;;;;;;;26.00;51.70;;;24.44;53.84;101142.84;12247446;19;19943;-89
2022/08/26 00:43:50;;;;;;;;;;;26.00;51.70;;;24.33;54.02;101121.75;12251497;19;19962;-89
2022/08/26 00:47:56;;;;;;;;;;;25.90;51.70;;;24.15;53.71;101101.41;12250620;19;19918;-89
2022/08/26 00:51:59;;;;;;;;;;;25.90;51.60;;;24.41;53.81;101149.31;12249099;19;19944;-89
2022/08/26 00:56:08;;;;;;;;;;;25.90;51.70;;;24.33;53.93;101132.44;12250498;19;19921;-89
2022/08/26 01:00:15;;;;;;;;;;;25.90;51.70;;;24.24;54.06;101128.94;12251240;19;19925;-88
2022/08/26 01:04:19;;;;;;;;;;;25.80;51.70;;;24.15;54.20;101125.41;12249623;19;19960;-88
2022/08/26 01:08:21;;;;;;;;;;;26.00;51.90;;;24.19;54.26;101123.25;12247848;19;19930;-89
2022/08/26 01:12:26;;;;;;;;;;;25.80;51.90;;;24.07;54.07;101109.38;12246999;19;19907;-88
2022/08/26 01:16:28;;;;;;;;;;;26.00;52.00;;;23.73;54.01;101058.78;12249932;19;19915;-88
2022/08/26 01:20:57;;;;;;;;;;;25.70;51.90;;;24.25;54.01;101138.63;12249576;19;19921;-89
2022/08/26 01:24:59;;;;;;;;;;;25.70;52.00;;;24.22;54.38;101137.13;12249316;19;19907;-89
2022/08/26 01:29:03;;;;;;;;;;;25.70;52.00;;;24.09;54.17;101112.75;12247868;19;19911;-89
2022/08/26 01:33:09;;;;;;;;;;;25.60;51.90;;;24.13;54.33;101130.06;12255376;19;19906;-88
2022/08/26 01:37:17;;;;;;;;;;;25.60;51.90;;;24.08;53.97;101127.88;12257464;19;19919;-88
2022/08/26 01:41:19;;;;;;;;;;;25.70;52.00;;;23.98;54.20;101119.22;12257383;19;19907;-88
2022/08/26 01:45:24;;;;;;;;;;;25.60;52.40;;;24.03;54.30;101126.72;12260933;19;20264;-88
2022/08/26 01:49:25;;;;;;;;;;;25.60;52.00;;;24.00;54.44;101132.38;12261423;19;20267;-88
2022/08/26 01:53:27;;;;;;;;;;;25.60;52.00;;;23.88;54.68;101121.19;12259469;19;20364;-89
2022/08/26 01:57:29;;;;;;;;;;;25.50;52.00;;;23.69;54.61;101089.41;12260615;19;19962;-88
2022/08/26 02:01:31;;;;;;;;;;;25.40;52.00;;;23.77;54.40;101105.47;12259041;19;20263;-89
2022/08/26 02:05:33;;;;;;;;;;;25.40;52.40;;;23.42;54.54;101052.16;12265872;19;19915;-88
2022/08/26 02:09:39;;;;;;;;;;;25.30;52.10;;;23.72;54.34;101102.47;12260025;19;19915;-88
2022/08/26 02:13:49;;;;;;;;;;;25.40;52.00;;;23.78;54.43;101121.31;12259638;19;19915;-88
2022/08/26 02:17:51;;;;;;;;;;;25.30;52.10;;;23.74;54.50;101109.31;12257407;19;20273;-89
2022/08/26 02:21:53;;;;;;;;;;;25.30;52.20;;;23.81;54.29;101117.47;12255487;19;19944;-89
2022/08/26 02:26:10;;;;;;;;;;;25.30;52.20;;;23.84;54.32;101128.69;12258062;19;20251;-88
2022/08/26 02:30:32;;;;;;;;;;;25.30;52.30;;;23.87;54.50;101121.31;12257661;19;19910;-89
2022/08/26 02:34:34;;;;;;;;;;;25.30;52.30;;;23.72;54.44;101105.94;12258902;19;19923;-89
2022/08/26 02:38:36;;;;;;;;;;;25.30;52.30;;;23.72;54.54;101110.47;12257667;19;19970;-88
2022/08/26 02:42:37;;;;;;;;;;;25.30;52.30;;;23.77;54.41;101113.47;12253104;19;19918;-89
2022/08/26 02:46:39;;;;;;;;;;;25.30;52.30;;;23.73;54.43;101107.63;12255251;19;19922;-88
2022/08/26 02:50:41;;;;;;;;;;;25.20;52.20;;;23.68;54.43;101103.72;12254813;19;19967;-88
2022/08/26 02:54:43;;;;;;;;;;;25.20;52.30;;;23.68;54.68;101099.22;12254675;19;19970;-88
2022/08/26 02:58:44;;;;;;;;;;;25.20;52.30;;;23.36;54.61;101057.31;12255346;19;19944;-89
2022/08/26 03:02:46;;;;;;;;;;;25.20;52.30;;;23.61;54.62;101095.56;12251693;19;19911;-88
2022/08/26 03:06:49;;;;;;;;;;;25.20;52.40;;;23.56;54.52;101095.19;12258154;19;19922;-87
2022/08/26 03:10:50;;;;;;;;;;;25.10;52.30;;;23.52;54.51;101083.16;12257208;19;19914;-87
2022/08/26 03:14:52;;;;;;;;;;;25.10;52.30;;;23.59;54.88;101101.03;12256371;19;19922;-87
2022/08/26 03:18:53;;;;;;;;;;;25.30;52.50;;;23.58;54.95;101090.53;12255054;19;20018;-87
2022/08/26 03:22:55;;;;;;;;;;;25.10;52.30;;;23.05;54.57;101012.50;12255202;19;19932;-86
2022/08/26 03:26:57;;;;;;;;;;;25.10;52.40;;;23.20;54.71;101026.09;12258479;19;19927;-87
2022/08/26 03:30:58;;;;;;;;;;;25.10;52.30;;;23.04;54.42;101008.19;12253367;19;19932;-89
2022/08/26 03:35:00;;;;;;;;;;;25.10;52.40;;;23.18;54.83;101030.72;12256977;19;19915;-87
2022/08/26 03:39:02;;;;;;;;;;;25.10;52.30;;;23.15;54.61;101031.88;12249724;19;19919;-87
2022/08/26 03:43:06;;;;;;;;;;;25.00;52.20;;;22.81;54.80;100993.72;12253771;19;19914;-87
2022/08/26 03:47:07;;;;;;;;;;;24.90;52.30;;;22.91;54.87;101011.25;12256910;19;19915;-86
2022/08/26 03:51:14;;;;;;;;;;;25.10;52.40;;;22.84;54.88;101006.69;12251806;19;19931;-87
2022/08/26 03:55:16;;;;;;;;;;;24.90;52.40;;;22.73;55.08;100986.50;12255056;19;19915;-87
2022/08/26 03:59:18;;;;;;;;;;;24.80;52.40;;;23.12;54.72;101052.69;12252409;19;19919;-86
2022/08/26 04:03:56;;;;;;;;;;;25.10;52.60;;;22.85;54.85;101014.53;12253806;19;19911;-88
2022/08/26 04:07:41;;;;;;;;;;;24.90;52.50;;;23.08;54.77;101051.31;12252669;19;19911;-89
2022/08/26 04:11:44;;;;;;;;;;;24.70;52.40;;;23.01;55.09;101039.63;12251789;19;19938;-89
2022/08/26 04:15:46;;;;;;;;;;;24.80;52.50;;;22.87;55.18;101025.88;12253316;19;19915;-89
2022/08/26 04:19:48;;;;;;;;;;;24.70;52.50;;;22.79;54.72;101011.66;12247266;19;19943;-88
2022/08/26 04:23:49;;;;;;;;;;;24.80;52.60;;;23.07;54.85;101065.66;12251056;19;19915;-89
2022/08/26 04:27:51;;;;;;;;;;;24.70;52.60;;;23.23;55.32;101091.56;12252573;19;19907;-89
2022/08/26 04:31:54;;;;;;;;;;;24.70;52.60;;;22.99;55.46;101050.44;12250327;19;19950;-89
2022/08/26 04:36:01;;;;;;;;;;;24.70;52.60;;;23.01;55.43;101050.28;12248011;19;19914;-89
2022/08/26 04:40:03;;;;;;;;;;;24.70;52.60;;;22.82;55.14;101016.66;12245977;19;19919;-88
2022/08/26 04:44:05;;;;;;;;;;;24.70;52.70;;;23.01;55.03;101047.59;12248149;19;19922;-89
2022/08/26 04:48:07;;;;;;;;;;;25.00;52.80;;;22.79;55.06;101017.84;12248623;19;19907;-89
2022/08/26 04:52:08;;;;;;;;;;;25.00;52.80;;;22.67;54.99;100995.13;12246446;19;19922;-88
2022/08/26 04:56:11;;;;;;;;;;;24.70;52.70;;;22.62;55.20;100995.59;12247912;19;19911;-88
2022/08/26 05:00:13;;;;;;;;;;;24.70;52.60;;;22.87;55.27;101035.69;12242492;19;19918;-89
2022/08/26 05:04:15;;;;;;;;;;;24.60;52.60;;;22.92;55.32;101055.53;12253465;19;20528;-89
2022/08/26 05:08:18;;;;;;;;;;;24.70;52.70;;;22.76;55.41;101028.78;12259843;19;19918;-89
2022/08/26 05:12:20;;;;;;;;;;;24.60;52.80;;;22.67;55.34;101019.91;12258299;19;19919;-89
2022/08/26 05:16:21;;;;;;;;;;;24.60;52.90;;;22.86;55.17;101037.50;12260877;19;19959;-89
2022/08/26 05:20:23;;;;;;;;;;;24.60;53.10;;;22.82;55.43;101044.16;12259801;19;19907;-86
2022/08/26 05:24:24;;;;;;;;;;;24.60;53.30;;;22.61;55.52;101004.56;12259943;19;19923;-87
2022/08/26 05:28:28;;;;;;;;;;;24.60;53.30;;;22.41;55.40;100982.63;12260852;19;19928;-86
2022/08/26 05:32:30;;;;;;;;;;;24.60;53.30;;;22.88;55.38;101048.84;12257054;19;19915;-86
2022/08/26 05:36:33;;;;;;;;;;;24.70;53.50;;;22.99;55.68;101066.44;12260321;19;20076;-87
2022/08/26 05:40:37;;;;;;;;;;;24.60;53.50;;;23.11;55.57;101078.47;12255663;19;20558;-88
2022/08/26 05:44:38;;;;;;;;;;;24.60;53.70;;;23.16;55.44;101073.50;12256265;19;20413;-90
2022/08/26 05:48:40;;;;;;;;;;;24.70;53.70;;;23.29;55.75;101080.25;12255689;19;19936;-90
2022/08/26 05:52:41;;;;;;;;;;;24.80;53.70;;;23.40;55.92;101085.28;12255018;19;19923;-89
2022/08/26 05:56:43;;;;;;;;;;;24.90;54.10;;;23.32;55.75;101063.94;12257630;19;19993;-89
2022/08/26 06:00:45;;;;;;;;;;;24.90;54.40;;;23.55;55.71;101085.53;12256044;19;19915;-89
2022/08/26 06:04:47;;;;;;;;;;;25.00;54.50;;;23.67;56.01;101086.06;12257337;19;19927;-90
2022/08/26 06:08:49;;;;;;;;;;;25.10;54.50;;;23.48;55.67;101032.00;12257260;19;19923;-88
2022/08/26 06:12:50;;;;;;;;;;;25.30;54.70;;;23.33;55.95;100982.97;12253421;19;19922;-88
2022/08/26 06:16:53;;;;;;;;;;;25.40;54.70;;;23.87;55.84;101041.31;12257740;19;19922;-89
2022/08/26 06:20:55;;;;;;;;;;;25.60;54.70;;;23.99;56.25;101030.16;12258531;19;19988;-88
2022/08/26 06:29:17;;;;;;;;;;;25.80;55.00;;;23.98;56.05;100971.63;12258150;19;19923;-87
2022/08/26 06:33:20;;;;;;;;;;;26.10;54.70;;;24.46;56.05;101023.34;12259144;19;19930;-88
2022/08/26 06:37:22;;;;;;;;;;;26.10;54.60;;;24.49;55.67;101001.66;12257448;19;19911;-88
2022/08/26 06:41:24;;;;;;;;;;;26.30;54.40;;;24.89;55.93;101046.16;12256131;19;20643;-87
2022/08/26 06:45:26;;;;;;;;;;;26.40;54.70;;;24.91;55.83;101021.94;12261060;19;19926;-87
2022/08/26 06:49:27;;;;;;;;;;;26.50;54.70;;;25.06;55.90;101036.28;12259810;19;19923;-88
2022/08/26 06:53:29;;;;;;;;;;;26.60;54.70;;;24.82;55.74;100975.72;12257966;19;19933;-87
2022/08/26 06:57:31;;;;;;;;;;;26.80;54.70;;;25.41;55.92;101052.88;12257251;19;19953;-89
2022/08/26 07:01:36;;;;;;;;;;;27.00;54.40;;;25.66;55.59;101075.00;12252542;19;19907;-88
2022/08/26 07:05:41;;;;;;;;;;;27.00;54.60;;;25.13;55.83;100970.41;12251925;19;19990;-90
2022/08/26 07:09:42;;;;;;;;;;;27.10;54.40;;;25.51;55.61;101013.38;12251849;19;19915;-88
2022/08/26 07:13:46;;;;;;;;;;;27.20;54.70;;;25.53;55.85;100994.50;12256077;19;19918;-88
2022/08/26 07:17:47;;;;;;;;;;;27.40;54.10;;;25.43;56.17;100969.81;12258817;19;19914;-88
2022/08/26 07:21:49;;;;;;;;;;;27.40;54.40;;;26.02;55.74;101045.84;12256665;19;19927;-87
2022/08/26 07:25:51;;;;;;;;;;;27.50;54.60;;;25.61;55.69;100965.00;12259456;19;19911;-87
2022/08/26 07:29:55;;;;;;;;;;;27.60;54.60;;;26.46;55.96;101073.81;12252992;19;19907;-87
2022/08/26 07:33:57;;;;;;;;;;;27.70;54.70;;;26.41;55.94;101036.00;12253586;19;19911;-87
2022/08/26 07:38:00;;;;;;;;;;;27.80;54.90;;;26.37;55.80;101003.41;12252046;19;19927;-88
2022/08/26 07:42:03;;;;;;;;;;;28.00;54.90;;;26.87;55.58;101060.06;12249880;19;19948;-88
2022/08/26 07:46:06;;;;;;;;;;;28.20;54.90;;;26.83;55.99;101022.06;12251848;19;20268;-87
2022/08/26 07:50:08;;;;;;;;;;;28.30;54.60;;;26.83;55.52;100994.44;12252102;19;20387;-84
2022/08/26 07:54:09;;;;;;;;;;;28.50;54.50;;;27.23;55.69;101030.69;12254891;19;19922;-84
2022/08/26 07:58:11;;;;;;;;;;;28.60;54.90;;;27.54;55.91;101051.06;12255647;19;20354;-84
2022/08/26 08:02:13;;;;;;;;;;;28.80;54.60;;;27.71;55.62;101052.53;12250370;19;19935;-84
2022/08/26 08:06:14;;;;;;;;;;;28.90;54.90;;;27.84;55.77;101049.19;12254789;19;19922;-85
2022/08/26 08:10:19;;;;;;;;;;;29.10;55.20;;;27.83;55.90;101018.00;12255037;19;19943;-85
2022/08/26 08:14:21;;;;;;;;;;;29.20;54.70;;;28.15;56.15;101037.31;12251580;19;19923;-85
2022/08/26 08:18:22;;;;;;;;;;;29.40;54.80;;;28.30;55.81;101030.00;12255763;19;19936;-85
2022/08/26 08:22:24;;;;;;;;;;;29.60;54.90;;;28.26;55.85;100984.91;12252586;19;20262;-88
2022/08/26 08:26:26;;;;;;;;;;;29.80;54.70;;;28.75;55.42;101033.25;12250237;19;20637;-88
2022/08/26 08:30:28;;;;;;;;;;;30.00;54.80;;;28.97;55.58;101028.63;12250790;19;19914;-87
2022/08/26 08:34:30;;;;;;;;;;;30.20;54.60;;;29.02;55.19;101026.16;12248738;19;19933;-86
2022/08/26 08:38:32;;;;;;;;;;;30.40;54.50;;;29.20;55.17;101038.31;12239713;19;19928;-85
2022/08/26 08:43:09;;;;;;;;;;;30.50;54.30;;;29.24;55.29;101028.78;12240609;19;19918;-86
2022/08/26 08:47:33;;;;;;;;;;;30.60;54.10;;;29.23;54.94;101027.13;12243906;19;20511;-87
2022/08/26 08:51:38;;;;;;;;;;;30.60;53.90;;;29.25;55.28;101019.72;12241904;19;20629;-86
2022/08/26 08:56:10;;;;;;;;;;;30.60;54.00;;;29.29;55.45;101002.13;12245733;19;19915;-85
2022/08/26 09:00:21;;;;;;;;;;;30.70;54.30;;;29.05;55.31;100946.97;12241828;19;19922;-87
2022/08/26 09:04:46;;;;;;;;;;;30.80;53.90;;;29.57;55.22;101015.47;12244272;19;19930;-86
2022/08/26 09:08:49;;;;;;;;;;;30.80;53.80;;;29.62;55.02;101009.47;12242543;19;19967;-85
2022/08/26 09:12:51;;;;;;;;;;;31.00;53.80;;;29.63;54.98;100998.50;12240465;19;19925;-86
2022/08/26 09:17:21;;;;;;;;;;;31.00;53.80;;;29.80;54.89;101007.06;12242681;19;19914;-86
2022/08/26 09:21:23;;;;;;;;;;;31.10;53.70;;;29.82;55.06;100993.41;12242868;19;19923;-86
2022/08/26 09:25:25;;;;;;;;;;;31.30;53.30;;;29.81;54.75;100986.34;12244194;19;20010;-83
2022/08/26 09:29:29;;;;;;;;;;;31.40;53.40;;;29.92;54.65;100993.78;12246895;19;19936;-83
2022/08/26 09:33:31;;;;;;;;;;;31.30;53.20;;;29.90;54.77;100979.72;12245908;19;19923;-83
2022/08/26 09:37:45;;;;;;;;;;;31.30;53.20;;;30.13;54.58;100998.16;12245172;19;19910;-83
2022/08/26 09:41:59;;;;;;;;;;;31.50;53.30;;;30.09;54.58;100983.47;12243537;19;19913;-84
2022/08/26 09:46:27;;;;;;;;;;;31.50;53.10;;;29.95;54.76;100934.97;12242719;19;20598;-84
2022/08/26 09:50:37;;;;;;;;;;;31.60;53.00;;;30.30;54.70;100980.59;12253029;19;19911;-83
2022/08/26 09:54:41;;;;;;;;;;;31.60;53.10;;;30.43;54.71;100983.28;12255954;19;19918;-83
2022/08/26 09:58:46;;;;;;;;;;;31.70;53.10;;;30.34;54.10;100946.78;12254356;19;19916;-83
2022/08/26 10:02:47;;;;;;;;;;;31.80;53.10;;;30.59;54.22;100973.88;12248897;19;19978;-86
2022/08/26 10:07:02;;;;;;;;;;;31.90;53.10;;;30.67;54.18;100959.34;12255684;19;19998;-85
2022/08/26 10:11:35;;;;;;;;;;;32.00;53.30;;;30.80;53.86;100953.09;12252744;19;19930;-87
2022/08/26 10:15:57;;;;;;;;;;;32.10;53.00;;;30.74;53.92;100938.59;12257319;19;19962;-84
2022/08/26 10:20:09;;;;;;;;;;;32.10;52.70;;;30.75;54.09;100929.47;12253299;19;19922;-85
2022/08/26 10:24:14;;;;;;;;;;;32.10;53.00;;;30.67;53.64;100913.53;12257308;19;19926;-86
2022/08/26 10:28:47;;;;;;;;;;;32.20;52.10;;;30.76;53.74;100903.31;12255338;19;19945;-86
2022/08/26 10:33:03;;;;;;;;;;;32.20;52.10;;;30.86;53.84;100907.25;12252960;19;20078;-83
2022/08/26 10:37:12;;;;;;;;;;;32.20;52.10;;;30.93;53.75;100901.84;12256809;19;20718;-83
2022/08/26 10:41:19;;;;;;;;;;;32.30;52.70;;;30.98;53.59;100903.91;12255967;19;19939;-84
2022/08/26 10:45:26;;;;;;;;;;;32.30;52.70;;;30.96;53.28;100882.53;12256260;19;19910;-85
2022/08/26 10:49:27;;;;;;;;;;;32.30;52.30;;;31.04;53.56;100889.53;12257101;19;19939;-85
2022/08/26 10:53:43;;;;;;;;;;;32.30;52.20;;;31.11;53.48;100895.75;12257495;19;19922;-85
2022/08/26 10:58:10;;;;;;;;;;;32.40;52.00;;;31.16;53.60;100879.69;12250406;19;19923;-83
2022/08/26 11:02:39;;;;;;;;;;;32.40;52.20;;;31.19;53.54;100855.00;12253517;19;19943;-84
2022/08/26 11:06:44;;;;;;;;;;;32.50;51.80;;;31.27;52.89;100851.19;12250831;19;19921;-85
2022/08/26 11:10:55;;;;;;;;;;;32.60;52.60;;;31.26;52.65;100853.06;12252692;19;19935;-85
2022/08/26 11:14:56;;;;;;;;;;;32.60;51.40;;;31.20;52.92;100850.44;12253089;19;19925;-85
2022/08/26 11:18:58;;;;;;;;;;;32.60;52.00;;;31.19;52.93;100848.75;12254457;19;19914;-86
2022/08/26 11:23:29;;;;;;;;;;;32.60;51.90;;;31.19;52.75;100838.81;12255308;19;19915;-83
2022/08/26 11:27:37;;;;;;;;;;;32.50;51.90;;;31.19;52.74;100825.31;12254776;19;19935;-85
2022/08/26 11:31:38;;;;;;;;;;;32.50;51.80;;;31.17;52.84;100813.09;12254673;19;19942;-86
2022/08/26 11:35:42;;;;;;;;;;;32.50;51.80;;;31.15;52.62;100809.78;12256765;19;19915;-84
2022/08/26 11:39:53;;;;;;;;;;;32.50;51.80;;;31.09;52.84;100808.78;12253403;19;19919;-85
2022/08/26 11:43:56;;;;;;;;;;;32.40;51.60;;;31.05;52.74;100794.88;12251531;19;20603;-84
2022/08/26 11:47:57;;;;;;;;;;;32.40;51.60;;;30.83;52.59;100767.44;12248614;19;20322;-86
2022/08/26 11:52:16;;;;;;;;;;;32.50;51.50;;;31.08;52.99;100807.13;12246067;19;19940;-84
2022/08/26 11:56:26;;;;;;;;;;;32.40;51.60;;;31.05;52.71;100791.38;12246210;19;20344;-85
2022/08/26 12:00:45;;;;;;;;;;;32.40;51.60;;;31.00;52.85;100807.38;12243123;19;20510;-84
2022/08/26 12:04:49;;;;;;;;;;;32.40;51.60;;;30.84;52.92;100804.19;12246934;19;19944;-85
2022/08/26 12:08:53;;;;;;;;;;;32.30;51.20;;;30.58;52.95;100793.50;12247536;19;20399;-85
2022/08/26 12:12:57;;;;;;;;;;;32.20;51.00;;;30.31;53.08;100782.84;12244254;19;19918;-85
2022/08/26 12:17:08;;;;;;;;;;;32.00;51.00;;;29.79;52.86;100736.16;12244220;19;19910;-85
2022/08/26 12:21:14;;;;;;;;;;;31.80;50.70;;;29.92;53.22;100794.50;12248288;19;19939;-85
2022/08/26 12:25:20;;;;;;;;;;;31.60;50.60;;;29.71;53.21;100798.31;12246433;19;19923;-85
2022/08/26 12:29:26;;;;;;;;;;;31.40;50.60;;;29.52;53.36;100790.00;12245626;19;19939;-85
2022/08/26 12:33:28;;;;;;;;;;;31.20;50.70;;;29.39;53.16;100806.16;12248052;19;19914;-83
2022/08/26 12:37:33;;;;;;;;;;;31.00;50.70;;;29.32;52.90;100816.88;12247230;19;19918;-84
2022/08/26 12:41:45;;;;;;;;;;;30.90;50.80;;;28.94;52.84;100792.41;12245045;19;19917;-84
2022/08/26 12:45:55;;;;;;;;;;;30.80;50.80;;;29.14;53.16;100845.41;12246577;19;20393;-84
2022/08/26 12:50:02;;;;;;;;;;;30.60;50.60;;;28.86;52.99;100836.44;12247761;19;19979;-85
2022/08/26 12:54:05;;;;;;;;;;;30.50;50.30;;;28.57;53.04;100834.03;12246959;19;19931;-84
2022/08/26 12:58:30;;;;;;;;;;;30.30;50.50;;;28.31;53.36;100854.38;12246065;19;19922;-85
2022/08/26 13:02:36;;;;;;;;;;;30.10;50.40;;;27.97;53.37;100836.38;12241231;19;20031;-84
2022/08/26 13:06:37;;;;;;;;;;;29.80;50.40;;;27.79;53.80;100837.69;12246237;19;20351;-85
2022/08/26 13:10:44;;;;;;;;;;;29.60;50.60;;;27.39;53.52;100815.06;12243230;19;19946;-85
2022/08/26 13:14:46;;;;;;;;;;;29.50;50.70;;;27.38;53.37;100834.03;12244502;19;19915;-85
2022/08/26 13:18:50;;;;;;;;;;;29.20;50.50;;;27.23;53.62;100867.13;12244449;19;19919;-85
2022/08/26 13:22:52;;;;;;;;;;;29.00;50.60;;;27.05;53.53;100872.03;12241674;19;19958;-83
2022/08/26 13:26:53;;;;;;;;;;;29.00;50.80;;;26.78;53.34;100839.56;12257335;19;19919;-84
2022/08/26 13:30:54;;;;;;;;;;;28.60;50.90;;;26.62;53.47;100845.13;12255935;19;19929;-85
2022/08/26 13:34:56;;;;;;;;;;;28.40;51.00;;;26.38;53.58;100816.78;12256591;19;20008;-84
2022/08/26 13:38:58;;;;;;;;;;;28.20;51.10;;;26.37;53.83;100815.13;12254142;19;19919;-85
2022/08/26 13:43:00;;;;;;;;;;;28.10;51.20;;;26.20;53.88;100790.41;12251502;19;19922;-84
2022/08/26 13:47:01;;;;;;;;;;;27.90;51.40;;;26.24;53.88;100821.13;12257152;19;19942;-85
2022/08/26 13:51:03;;;;;;;;;;;27.80;51.40;;;26.17;53.87;100821.06;12254252;19;20261;-85
2022/08/26 13:55:06;;;;;;;;;;;27.70;51.60;;;26.17;53.95;100814.88;12255746;19;20239;-85
2022/08/26 13:59:08;;;;;;;;;;;27.70;51.70;;;26.13;53.74;100792.97;12252085;19;19919;-85
2022/08/26 14:03:09;;;;;;;;;;;28.00;52.10;;;25.93;53.80;100743.72;12250530;19;19922;-85
2022/08/26 14:07:11;;;;;;;;;;;27.70;52.40;;;26.29;54.07;100810.69;12253865;19;20366;-83
2022/08/26 14:11:13;;;;;;;;;;;27.80;52.00;;;26.17;54.25;100802.31;12250392;19;19953;-84
2022/08/26 14:15:16;;;;;;;;;;;27.70;52.00;;;26.15;53.82;100798.16;12251086;19;19907;-85
2022/08/26 14:19:18;;;;;;;;;;;27.70;52.10;;;26.17;54.02;100863.06;12249690;19;19922;-86
2022/08/26 14:23:21;;;;;;;;;;;27.60;52.40;;;26.18;54.14;100902.19;12251646;19;19911;-84
2022/08/26 14:27:22;;;;;;;;;;;27.60;52.30;;;26.11;54.17;100864.59;12254358;19;20385;-84
2022/08/26 14:31:25;;;;;;;;;;;27.60;52.30;;;25.96;54.10;100858.41;12250559;19;19956;-85
2022/08/26 14:35:29;;;;;;;;;;;27.50;52.60;;;26.01;54.26;100859.53;12251215;19;19945;-84
2022/08/26 14:39:31;;;;;;;;;;;27.50;52.30;;;25.99;54.38;100856.19;12250058;19;19970;-83
2022/08/26 14:43:32;;;;;;;;;;;27.50;52.60;;;25.83;54.46;100851.81;12251118;19;19923;-84
2022/08/26 14:47:34;;;;;;;;;;;27.40;52.50;;;25.75;54.46;100822.44;12251373;19;19915;-84
2022/08/26 14:51:36;;;;;;;;;;;27.40;52.90;;;25.89;54.11;100833.38;12247963;19;20322;-86
2022/08/26 14:55:39;;;;;;;;;;;27.50;52.80;;;25.57;54.34;100781.81;12251573;19;19915;-84
2022/08/26 14:59:43;;;;;;;;;;;27.40;52.70;;;25.78;54.79;100807.88;12248203;19;19923;-85
2022/08/26 15:03:45;;;;;;;;;;;27.30;52.70;;;25.85;54.63;100811.53;12250221;19;20369;-83
2022/08/26 15:07:46;;;;;;;;;;;27.30;52.80;;;25.87;54.51;100812.19;12250776;19;19974;-84
2022/08/26 15:11:49;;;;;;;;;;;27.30;52.90;;;25.89;54.22;100809.31;12248422;19;19914;-84
2022/08/26 15:15:50;;;;;;;;;;;27.30;52.80;;;25.90;54.36;100821.69;12251832;19;19925;-85
2022/08/26 15:19:52;;;;;;;;;;;27.30;52.80;;;25.82;54.37;100825.25;12249864;19;19915;-84
2022/08/26 15:23:53;;;;;;;;;;;27.30;52.70;;;25.86;54.37;100841.78;12250308;19;20334;-84
2022/08/26 15:27:55;;;;;;;;;;;27.30;52.80;;;25.75;54.25;100851.03;12252380;19;19962;-84
2022/08/26 15:31:57;;;;;;;;;;;27.30;52.90;;;25.81;54.04;100898.47;12248884;19;19911;-85
2022/08/26 15:36:00;;;;;;;;;;;27.40;53.10;;;25.61;54.07;100858.03;12249844;19;19918;-84
2022/08/26 15:40:03;;;;;;;;;;;27.30;52.50;;;25.58;54.28;100803.03;12247992;19;19940;-85
2022/08/26 15:44:06;;;;;;;;;;;27.20;53.00;;;25.34;54.71;100765.84;12251055;19;20299;-85
2022/08/26 15:48:07;;;;;;;;;;;27.00;52.70;;;25.40;54.65;100791.84;12248476;19;19923;-85
2022/08/26 15:52:09;;;;;;;;;;;26.90;52.90;;;25.15;54.77;100777.84;12247413;19;19927;-85
2022/08/26 15:56:10;;;;;;;;;;;26.80;53.20;;;24.89;54.83;100741.56;12248568;19;20346;-84
2022/08/26 16:00:12;;;;;;;;;;;26.70;52.90;;;25.08;54.63;100787.53;12246047;19;19910;-85
2022/08/26 16:04:14;;;;;;;;;;;26.60;52.70;;;24.95;54.91;100772.94;12247603;19;20319;-83
2022/08/26 16:08:16;;;;;;;;;;;26.50;53.10;;;24.73;54.93;100763.91;12247909;19;19982;-84
2022/08/26 16:12:17;;;;;;;;;;;26.40;53.10;;;24.72;54.87;100778.25;12247144;19;19930;-85
2022/08/26 16:16:20;;;;;;;;;;;26.40;52.60;;;24.55;55.57;100759.81;12248501;19;19918;-85
2022/08/26 16:20:21;;;;;;;;;;;26.20;52.80;;;24.41;55.27;100764.03;12244907;19;20288;-84
2022/08/26 16:24:23;;;;;;;;;;;26.00;52.70;;;24.38;55.12;100764.38;12247050;19;19911;-86
2022/08/26 16:28:25;;;;;;;;;;;26.00;53.30;;;24.36;55.46;100755.72;12247489;19;19953;-84
2022/08/26 16:32:26;;;;;;;;;;;25.90;53.40;;;24.38;55.15;100759.03;12245249;19;20352;-84
2022/08/26 16:36:28;;;;;;;;;;;25.90;53.40;;;24.33;55.68;100762.25;12247177;19;19918;-85
2022/08/26 16:40:30;;;;;;;;;;;25.80;53.50;;;24.34;55.28;100765.75;12243675;19;19933;-86
2022/08/26 16:44:43;;;;;;;;;;;25.80;53.80;;;24.27;55.86;100763.75;12245879;19;19940;-85
2022/08/26 16:48:44;;;;;;;;;;;25.80;53.90;;;24.28;55.88;100770.78;12247329;19;19943;-84
2022/08/26 16:52:50;;;;;;;;;;;25.80;54.10;;;24.36;55.87;100775.25;12243779;19;19918;-84
2022/08/26 16:56:52;;;;;;;;;;;25.80;54.20;;;24.42;55.42;100779.88;12246523;19;20432;-85
2022/08/26 17:00:54;;;;;;;;;;;25.80;54.40;;;24.58;55.44;100805.72;12257292;19;19914;-84
2022/08/26 17:04:56;;;;;;;;;;;25.90;54.50;;;24.53;55.50;100791.22;12258811;19;19922;-84
2022/08/26 17:08:57;;;;;;;;;;;25.90;54.40;;;24.47;55.43;100764.22;12259440;19;19915;-85
2022/08/26 17:12:59;;;;;;;;;;;26.00;54.40;;;24.52;55.95;100766.38;12259291;19;19915;-85
2022/08/26 17:17:02;;;;;;;;;;;26.30;54.50;;;24.61;55.78;100781.31;12264147;19;19959;-85
2022/08/26 17:21:06;;;;;;;;;;;26.10;54.40;;;24.59;55.68;100780.66;12262298;19;19918;-86
2022/08/26 17:25:15;;;;;;;;;;;26.00;54.40;;;24.57;55.61;100779.19;12266592;19;20302;-84
2022/08/26 17:29:17;;;;;;;;;;;26.00;54.30;;;24.56;55.56;100782.88;12265648;19;20231;-84
2022/08/26 17:33:18;;;;;;;;;;;26.00;54.50;;;24.54;55.70;100767.00;12263544;19;19922;-87
2022/08/26 17:37:19;;;;;;;;;;;26.00;54.20;;;24.58;55.68;100767.50;12261335;19;20345;-87
2022/08/26 17:41:21;;;;;;;;;;;26.10;54.00;;;24.36;56.33;100737.88;12259366;19;19922;-86
2022/08/26 17:45:23;;;;;;;;;;;25.90;54.10;;;24.50;56.03;100760.38;12255607;19;19926;-86
2022/08/26 17:49:24;;;;;;;;;;;26.00;54.10;;;24.28;55.91;100716.56;12259464;19;19915;-86
2022/08/26 17:53:26;;;;;;;;;;;26.20;54.30;;;24.42;56.20;100739.03;12259707;19;19934;-87
2022/08/26 17:57:27;;;;;;;;;;;25.90;54.40;;;24.41;55.97;100732.00;12261501;19;19919;-86
2022/08/26 18:01:29;;;;;;;;;;;26.00;54.60;;;24.48;56.39;100741.00;12260642;19;19935;-87
2022/08/26 18:05:30;;;;;;;;;;;25.90;54.60;;;24.55;56.50;100731.31;12260698;19;19951;-86
2022/08/26 18:09:32;;;;;;;;;;;26.00;54.70;;;24.46;56.25;100711.81;12255032;19;20408;-87
2022/08/26 18:13:34;;;;;;;;;;;25.90;54.70;;;24.58;56.03;100725.59;12257742;19;19923;-87
2022/08/26 18:17:37;;;;;;;;;;;26.00;54.90;;;24.59;56.50;100713.91;12255764;19;19943;-87
2022/08/26 18:21:39;;;;;;;;;;;26.00;54.80;;;24.56;56.32;100708.09;12254666;19;19914;-87
2022/08/26 18:25:41;;;;;;;;;;;26.40;55.10;;;24.59;56.43;100710.41;12257714;19;19910;-87